createdAt,value
2019-02-04T00:01:17.179Z,12.10
2019-02-04T00:03:47.094Z,17.07
2019-02-04T00:06:17.791Z,10.90
2019-02-04T00:08:47.708Z,10.83
2019-02-04T00:11:17.619Z,11.63
2019-02-04T00:13:47.535Z,11.03
2019-02-04T00:16:17.450Z,10.40
2019-02-04T00:18:48.346Z,14.40
2019-02-04T00:21:19.043Z,11.37
2019-02-04T00:23:49.058Z,11.67
2019-02-04T00:26:19.264Z,12.90
2019-02-04T00:28:49.182Z,10.80
2019-02-04T00:31:19.799Z,12.50
2019-02-04T00:33:49.695Z,17.07
2019-02-04T00:36:19.606Z,15.73
2019-02-04T00:38:49.522Z,15.77
2019-02-04T00:41:19.434Z,14.30
2019-02-04T00:43:49.347Z,16.57
2019-02-04T00:46:19.260Z,13.67
2019-02-04T00:48:50.058Z,13.47
2019-02-04T00:51:19.972Z,12.57
2019-02-04T00:53:50.477Z,11.93
2019-02-04T00:56:20.389Z,10.70
2019-02-04T00:58:50.797Z,12.97
2019-02-04T01:01:20.711Z,12.23
2019-02-04T01:03:51.014Z,13.60
2019-02-04T01:06:21.308Z,11.00
2019-02-04T01:08:53.720Z,16.13
2019-02-04T01:11:23.512Z,12.77
2019-02-04T01:13:53.526Z,13.63
2019-02-04T01:16:23.730Z,13.67
2019-02-04T01:18:53.936Z,12.27
2019-02-04T01:21:23.857Z,10.67
2019-02-04T01:23:53.763Z,13.07
2019-02-04T01:26:24.267Z,11.63
2019-02-04T01:28:54.477Z,14.63
2019-02-04T01:31:24.389Z,15.93
2019-02-04T01:33:54.303Z,24.60
2019-02-04T01:36:24.316Z,24.30
2019-02-04T01:38:55.112Z,21.53
2019-02-04T01:41:25.124Z,20.40
2019-02-04T01:43:55.040Z,24.97
2019-02-04T01:46:25.152Z,25.43
2019-02-04T01:48:55.262Z,44.60
2019-02-04T01:51:25.176Z,45.90
2019-02-04T01:53:55.151Z,46.00
2019-02-04T01:56:25.294Z,37.90
2019-02-04T01:58:55.208Z,34.13
2019-02-04T02:01:25.320Z,23.93
2019-02-04T02:03:55.329Z,18.53
2019-02-04T02:06:25.543Z,20.23
2019-02-04T02:08:55.846Z,16.70
2019-02-04T02:11:25.764Z,13.23
2019-02-04T02:13:55.770Z,15.37
2019-02-04T02:16:25.709Z,19.87
2019-02-04T02:18:57.568Z,16.23
2019-02-04T02:21:27.775Z,18.73
2019-02-04T02:23:57.982Z,17.47
2019-02-04T02:26:27.899Z,23.37
2019-02-04T02:28:57.909Z,26.37
2019-02-04T02:31:27.920Z,39.70
2019-02-04T02:33:57.833Z,53.03
2019-02-04T02:36:27.746Z,35.87
2019-02-04T02:38:57.552Z,38.43
2019-02-04T02:41:27.572Z,38.73
2019-02-04T02:43:57.488Z,44.20
2019-02-04T02:46:27.747Z,43.83
2019-02-04T02:48:58.002Z,29.63
2019-02-04T02:51:27.917Z,29.93
2019-02-04T02:53:57.833Z,27.73
2019-02-04T02:56:27.747Z,28.90
2019-02-04T02:58:57.957Z,21.73
2019-02-04T03:01:27.866Z,26.70
2019-02-04T03:03:57.975Z,25.87
2019-02-04T03:06:27.890Z,25.27
2019-02-04T03:08:57.802Z,26.63
2019-02-04T03:11:27.719Z,26.47
2019-02-04T03:13:58.229Z,26.57
2019-02-04T03:16:28.526Z,27.07
2019-02-04T03:18:58.637Z,28.03
2019-02-04T03:21:28.551Z,28.50
2019-02-04T03:24:00.743Z,32.57
2019-02-04T03:26:30.153Z,33.73
2019-02-04T03:29:00.061Z,29.80
2019-02-04T03:31:29.976Z,30.30
2019-02-04T03:33:59.940Z,33.53
2019-02-04T03:36:29.899Z,31.33
2019-02-04T03:38:59.814Z,30.13
2019-02-04T03:41:30.121Z,27.37
2019-02-04T03:44:00.038Z,25.87
2019-02-04T03:46:30.049Z,28.57
2019-02-04T03:49:00.157Z,29.17
2019-02-04T03:51:30.170Z,29.03
2019-02-04T03:54:00.675Z,27.37
2019-02-04T03:56:30.589Z,27.67
2019-02-04T03:59:00.504Z,28.90
2019-02-04T04:01:31.528Z,27.03
2019-02-04T04:04:01.511Z,25.33
2019-02-04T04:06:31.419Z,25.97
2019-02-04T04:09:01.332Z,25.83
2019-02-04T04:11:31.246Z,24.40
2019-02-04T04:14:01.257Z,25.53
2019-02-04T04:16:31.172Z,26.20
2019-02-04T04:19:01.184Z,23.93
2019-02-04T04:21:31.294Z,26.03
2019-02-04T04:24:01.208Z,24.70
2019-02-04T04:26:31.122Z,24.70
2019-02-04T04:29:01.036Z,23.90
2019-02-04T04:31:31.046Z,23.93
2019-02-04T04:34:01.160Z,25.47
2019-02-04T04:36:31.070Z,23.37
2019-02-04T04:39:00.992Z,26.53
2019-02-04T04:41:30.897Z,25.60
2019-02-04T04:44:00.814Z,23.57
2019-02-04T04:46:30.723Z,21.67
2019-02-04T04:49:00.838Z,23.00
2019-02-04T04:51:30.853Z,24.20
2019-02-04T04:54:00.765Z,21.47
2019-02-04T04:56:30.677Z,25.27
2019-02-04T04:59:00.589Z,20.77
2019-02-04T05:01:30.698Z,24.27
2019-02-04T05:04:00.615Z,25.03
2019-02-04T05:06:30.820Z,24.47
2019-02-04T05:09:00.734Z,26.93
2019-02-04T05:11:30.648Z,26.67
2019-02-04T05:14:00.562Z,25.07
2019-02-04T05:16:30.867Z,27.60
2019-02-04T05:19:00.979Z,27.10
2019-02-04T05:21:30.893Z,28.63
2019-02-04T05:24:00.910Z,26.80
2019-02-04T05:26:31.215Z,26.77
2019-02-04T05:29:02.790Z,22.70
2019-02-04T05:31:32.707Z,25.43
2019-02-04T05:34:02.507Z,24.27
2019-02-04T05:36:32.735Z,22.27
2019-02-04T05:39:02.553Z,24.73
2019-02-04T05:41:32.756Z,23.33
2019-02-04T05:44:02.971Z,25.83
2019-02-04T05:46:33.173Z,22.97
2019-02-04T05:49:03.094Z,22.40
2019-02-04T05:51:33.001Z,25.40
2019-02-04T05:54:02.915Z,25.17
2019-02-04T05:56:33.221Z,26.70
2019-02-04T05:59:03.333Z,22.90
2019-02-04T06:01:33.281Z,25.40
2019-02-04T06:04:03.369Z,22.87
2019-02-04T06:06:33.270Z,22.27
2019-02-04T06:09:03.772Z,20.07
2019-02-04T06:11:33.692Z,21.37
2019-02-04T06:14:03.599Z,22.13
2019-02-04T06:16:33.513Z,19.33
2019-02-04T06:19:04.114Z,33.33
2019-02-04T06:21:34.030Z,30.93
2019-02-04T06:24:04.434Z,31.70
2019-02-04T06:26:34.450Z,30.33
2019-02-04T06:29:04.890Z,30.27
2019-02-04T06:31:34.864Z,29.40
2019-02-04T06:34:05.222Z,31.23
2019-02-04T06:36:35.184Z,29.57
2019-02-04T06:39:08.439Z,25.63
2019-02-04T06:41:38.941Z,28.77
2019-02-04T06:44:09.051Z,29.67
2019-02-04T06:46:39.262Z,30.37
2019-02-04T06:49:12.458Z,28.43
2019-02-04T06:51:40.857Z,24.23
2019-02-04T06:54:10.776Z,26.60
2019-02-04T06:56:40.685Z,29.47
2019-02-04T06:59:10.599Z,31.87
2019-02-04T07:01:40.611Z,31.60
2019-02-04T07:04:11.212Z,38.47
2019-02-04T07:06:41.127Z,34.60
2019-02-04T07:09:11.829Z,31.63
2019-02-04T07:11:42.330Z,26.07
2019-02-04T07:14:12.348Z,22.93
2019-02-04T07:16:42.256Z,21.03
2019-02-04T07:19:23.481Z,28.13
2019-02-04T07:21:43.955Z,25.63
2019-02-04T07:24:13.875Z,23.57
2019-02-04T07:26:43.778Z,27.37
2019-02-04T07:29:13.698Z,25.77
2019-02-04T07:31:44.490Z,28.30
2019-02-04T07:34:14.504Z,26.90
2019-02-04T07:36:44.514Z,24.40
2019-02-04T07:39:14.721Z,22.33
2019-02-04T07:41:44.639Z,23.13
2019-02-04T07:44:14.553Z,23.93
2019-02-04T07:46:44.953Z,27.57
2019-02-04T07:49:14.966Z,28.43
2019-02-04T07:51:44.879Z,26.17
2019-02-04T07:54:15.190Z,28.80
2019-02-04T07:56:45.396Z,35.03
2019-02-04T07:59:16.094Z,43.30
2019-02-04T08:01:46.205Z,41.87
2019-02-04T08:04:16.121Z,36.80
2019-02-04T08:06:46.326Z,45.47
2019-02-04T08:09:16.240Z,36.27
2019-02-04T08:11:46.159Z,40.03
2019-02-04T08:14:16.362Z,38.80
2019-02-04T08:16:46.278Z,31.30
2019-02-04T08:19:16.389Z,26.57
2019-02-04T08:21:46.302Z,30.20
2019-02-04T08:24:16.215Z,27.60
2019-02-04T08:26:46.991Z,22.07
2019-02-04T08:29:16.925Z,20.37
2019-02-04T08:31:46.840Z,22.43
2019-02-04T08:34:16.951Z,25.50
2019-02-04T08:36:47.203Z,27.20
2019-02-04T08:39:17.412Z,32.03
2019-02-04T08:41:47.913Z,27.53
2019-02-04T08:44:17.886Z,26.77
2019-02-04T08:46:47.686Z,26.53
2019-02-04T08:49:18.005Z,25.67
2019-02-04T08:51:47.917Z,20.40
2019-02-04T08:54:17.929Z,21.83
2019-02-04T08:56:48.139Z,22.63
2019-02-04T08:59:18.051Z,22.03
2019-02-04T09:01:47.966Z,18.90
2019-02-04T09:04:18.274Z,19.87
2019-02-04T09:06:48.190Z,17.43
2019-02-04T09:09:18.591Z,18.57
2019-02-04T09:11:48.996Z,16.53
2019-02-04T09:14:18.909Z,18.93
2019-02-04T09:16:48.824Z,17.07
2019-02-04T09:19:19.131Z,17.03
2019-02-04T09:21:50.228Z,15.97
2019-02-04T09:24:20.137Z,20.20
2019-02-04T09:26:50.051Z,17.13
2019-02-04T09:29:20.162Z,27.33
2019-02-04T09:31:50.099Z,26.43
2019-02-04T09:34:20.190Z,21.43
2019-02-04T09:36:50.590Z,20.43
2019-02-04T09:39:21.289Z,18.17
2019-02-04T09:41:51.207Z,20.87
2019-02-04T09:44:21.714Z,20.17
2019-02-04T09:46:51.621Z,20.40
2019-02-04T09:49:21.535Z,19.93
2019-02-04T09:51:51.448Z,18.50
2019-02-04T09:54:22.081Z,21.80
2019-02-04T09:56:52.062Z,17.30
2019-02-04T09:59:22.075Z,20.60
2019-02-04T10:01:51.991Z,18.93
2019-02-04T10:04:21.904Z,16.80
2019-02-04T10:06:52.174Z,20.93
2019-02-04T10:09:22.123Z,15.40
2019-02-04T10:11:52.036Z,15.30
2019-02-04T10:14:22.341Z,14.10
2019-02-04T10:16:52.685Z,11.53
2019-02-04T10:19:23.336Z,14.20
2019-02-04T10:21:53.999Z,10.83
2019-02-04T10:24:24.262Z,14.43
2019-02-04T10:26:54.200Z,13.43
2019-02-04T10:29:24.325Z,11.33
2019-02-04T10:31:54.294Z,11.97
2019-02-04T10:34:24.619Z,11.17
2019-02-04T10:36:54.806Z,11.07
2019-02-04T10:39:25.035Z,9.97
2019-02-04T10:41:55.070Z,9.53
2019-02-04T10:44:25.179Z,9.37
2019-02-04T10:46:55.302Z,10.40
2019-02-04T10:49:25.775Z,8.27
2019-02-04T10:51:55.712Z,11.57
2019-02-04T10:54:28.738Z,10.77
2019-02-04T10:56:58.693Z,8.97
2019-02-04T10:59:28.650Z,9.80
2019-02-04T11:01:58.980Z,10.03
2019-02-04T11:04:28.920Z,10.03
2019-02-04T11:06:59.030Z,7.63
2019-02-04T11:09:29.058Z,8.47
2019-02-04T11:11:59.915Z,9.30
2019-02-04T11:14:30.202Z,8.77
2019-02-04T11:17:00.216Z,7.50
2019-02-04T11:19:30.125Z,10.53
2019-02-04T11:22:00.451Z,8.00
2019-02-04T11:24:30.655Z,12.10
2019-02-04T11:27:00.846Z,11.00
2019-02-04T11:29:31.059Z,6.60
2019-02-04T11:32:01.695Z,8.70
2019-02-04T11:34:31.864Z,10.77
2019-02-04T11:37:02.049Z,8.80
2019-02-04T11:39:32.143Z,16.47
2019-02-04T11:42:02.749Z,11.40
2019-02-04T11:44:33.095Z,6.60
2019-02-04T11:47:03.111Z,7.33
2019-02-04T11:49:33.509Z,5.53
2019-02-04T11:52:04.023Z,5.27
2019-02-04T11:54:33.865Z,5.77
2019-02-04T11:57:03.844Z,7.73
2019-02-04T11:59:34.228Z,7.23
2019-02-04T12:02:05.340Z,4.70
2019-02-04T12:04:35.256Z,7.27
2019-02-04T12:07:05.462Z,7.90
2019-02-04T12:09:35.965Z,6.37
2019-02-04T12:12:06.567Z,5.10
2019-02-04T12:14:36.481Z,5.43
2019-02-04T12:17:06.788Z,5.40
2019-02-04T12:19:36.700Z,5.70
2019-02-04T12:22:07.008Z,6.70
2019-02-04T12:24:36.923Z,7.93
2019-02-04T12:27:07.034Z,6.03
2019-02-04T12:29:37.242Z,8.17
2019-02-04T12:32:07.252Z,6.40
2019-02-04T12:34:37.783Z,5.13
2019-02-04T12:37:08.097Z,6.33
2019-02-04T12:39:38.074Z,7.17
2019-02-04T12:42:08.810Z,7.10
2019-02-04T12:44:38.985Z,6.73
2019-02-04T12:47:09.879Z,10.30
2019-02-04T12:49:39.794Z,8.10
2019-02-04T12:52:10.035Z,11.70
2019-02-04T12:54:40.013Z,10.67
2019-02-04T12:57:09.927Z,9.07
2019-02-04T12:59:40.234Z,10.63
2019-02-04T13:02:10.540Z,9.70
2019-02-04T13:04:40.801Z,10.70
2019-02-04T13:07:10.760Z,7.67
2019-02-04T13:09:40.674Z,8.20
2019-02-04T13:12:10.983Z,10.50
2019-02-04T13:14:41.092Z,13.87
2019-02-04T13:17:11.006Z,10.40
2019-02-04T13:19:40.954Z,11.03
2019-02-04T13:22:11.222Z,10.73
2019-02-04T13:24:41.137Z,11.07
2019-02-04T13:27:11.249Z,10.63
2019-02-04T13:29:41.161Z,10.70
2019-02-04T13:32:11.764Z,13.17
2019-02-04T13:34:41.677Z,10.80
2019-02-04T13:37:11.591Z,11.77
2019-02-04T13:39:41.395Z,11.47
2019-02-04T13:42:11.514Z,12.57
2019-02-04T13:44:41.685Z,12.87
2019-02-04T13:47:11.736Z,18.07
2019-02-04T13:49:42.041Z,12.47
2019-02-04T13:52:15.158Z,12.60
2019-02-04T13:54:43.934Z,14.73
2019-02-04T13:57:14.144Z,13.77
2019-02-04T13:59:44.546Z,12.83
2019-02-04T14:02:14.460Z,13.07
2019-02-04T14:04:44.677Z,16.27
2019-02-04T14:07:14.582Z,11.57
2019-02-04T14:09:44.692Z,11.90
2019-02-04T14:12:15.194Z,9.93
2019-02-04T14:14:45.109Z,10.37
2019-02-04T14:17:15.442Z,12.63
2019-02-04T14:19:45.624Z,13.00
2019-02-04T14:22:15.537Z,10.70
2019-02-04T14:24:45.453Z,10.73
2019-02-04T14:27:15.245Z,13.53
2019-02-04T14:29:45.374Z,12.67
2019-02-04T14:32:15.584Z,13.47
2019-02-04T14:34:45.501Z,12.00
2019-02-04T14:37:15.510Z,16.63
2019-02-04T14:39:45.914Z,9.90
2019-02-04T14:42:16.615Z,12.40
2019-02-04T14:44:49.287Z,13.13
2019-02-04T14:47:23.622Z,12.47
2019-02-04T14:50:19.043Z,10.03
2019-02-04T14:52:59.134Z,11.47
2019-02-04T14:55:54.502Z,9.10
2019-02-04T14:58:31.790Z,11.23
2019-02-04T15:01:32.181Z,14.17
2019-02-04T15:04:12.712Z,12.70
2019-02-04T15:07:13.981Z,11.53
2019-02-04T15:10:03.244Z,12.83
2019-02-04T15:13:08.351Z,13.53
2019-02-04T15:16:13.275Z,12.03
2019-02-04T15:19:11.078Z,10.87
2019-02-04T15:21:56.963Z,10.57
2019-02-04T15:24:37.187Z,12.67
2019-02-04T15:27:46.319Z,11.63
2019-02-04T15:30:39.827Z,10.30
2019-02-04T15:33:32.939Z,11.90
2019-02-04T15:36:25.463Z,13.77
2019-02-04T15:39:05.509Z,9.53
2019-02-04T15:42:13.458Z,10.27
2019-02-04T15:44:59.788Z,16.37
2019-02-04T15:47:40.512Z,8.23
2019-02-04T15:50:23.698Z,12.00
2019-02-04T15:52:53.810Z,10.77
2019-02-04T15:55:24.214Z,12.20
2019-02-04T15:57:54.000Z,9.77
2019-02-04T16:00:23.945Z,11.30
2019-02-04T16:02:53.963Z,11.13
2019-02-04T16:05:24.164Z,10.97
2019-02-04T16:07:54.079Z,11.23
2019-02-04T16:10:24.287Z,8.60
2019-02-04T16:12:54.300Z,9.67
2019-02-04T16:15:24.215Z,10.60
2019-02-04T16:17:54.814Z,11.60
2019-02-04T16:20:25.905Z,10.60
2019-02-04T16:22:58.889Z,11.60
2019-02-04T16:25:28.000Z,12.20
2019-02-04T16:27:57.906Z,11.50
2019-02-04T16:30:27.821Z,18.53
2019-02-04T16:32:58.878Z,15.80
2019-02-04T16:35:28.927Z,37.40
2019-02-04T16:37:59.225Z,28.27
2019-02-04T16:40:29.150Z,21.03
2019-02-04T16:42:59.256Z,19.50
2019-02-04T16:45:29.465Z,22.80
2019-02-04T16:47:59.378Z,30.77
2019-02-04T16:50:30.571Z,23.23
2019-02-04T16:53:10.041Z,21.10
2019-02-04T16:55:33.053Z,11.50
2019-02-04T16:58:03.257Z,14.17
2019-02-04T17:00:35.138Z,12.33
2019-02-04T17:03:05.348Z,13.53
2019-02-04T17:05:35.947Z,11.43
2019-02-04T17:08:07.039Z,11.57
2019-02-04T17:10:37.193Z,11.50
2019-02-04T17:13:07.564Z,11.33
2019-02-04T17:15:37.763Z,12.13
2019-02-04T17:18:07.980Z,10.40
2019-02-04T17:20:38.150Z,10.97
2019-02-04T17:23:08.487Z,9.57
2019-02-04T17:25:38.399Z,8.37
2019-02-04T17:28:08.998Z,9.87
2019-02-04T17:30:38.919Z,10.13
2019-02-04T17:33:08.940Z,10.53
2019-02-04T17:35:38.841Z,12.57
2019-02-04T17:38:09.443Z,13.33
2019-02-04T17:40:39.754Z,14.37
2019-02-04T17:43:09.775Z,17.77
2019-02-04T17:45:39.678Z,15.20
2019-02-04T17:48:10.576Z,16.73
2019-02-04T17:50:40.390Z,17.13
2019-02-04T17:53:10.848Z,17.17
2019-02-04T17:55:41.066Z,16.60
2019-02-04T17:58:11.020Z,18.03
2019-02-04T18:00:42.393Z,17.03
2019-02-04T18:03:12.313Z,27.67
2019-02-04T18:05:42.238Z,38.93
2019-02-04T18:09:07.713Z,43.03
2019-02-04T18:11:37.809Z,37.27
2019-02-04T18:14:08.198Z,36.37
2019-02-04T18:16:38.311Z,41.40
2019-02-04T18:19:08.333Z,32.47
2019-02-04T18:21:38.236Z,27.07
2019-02-04T18:24:08.440Z,21.43
2019-02-04T18:26:38.355Z,19.30
2019-02-04T18:29:08.273Z,19.00
2019-02-04T18:31:38.674Z,18.87
2019-02-04T18:34:09.176Z,17.07
2019-02-04T18:36:39.290Z,18.60
2019-02-04T18:39:11.461Z,20.30
2019-02-04T18:41:41.670Z,18.73
2019-02-04T18:44:11.978Z,21.27
2019-02-04T18:46:42.505Z,18.23
2019-02-04T18:49:12.492Z,19.83
2019-02-04T18:51:42.405Z,21.23
2019-02-04T18:54:12.324Z,21.97
2019-02-04T18:56:42.229Z,25.20
2019-02-04T18:59:12.146Z,26.93
2019-02-04T19:01:42.747Z,26.67
2019-02-04T19:04:15.637Z,28.67
2019-02-04T19:06:47.842Z,30.13
2019-02-04T19:09:16.517Z,28.60
2019-02-04T19:11:46.430Z,27.00
2019-02-04T19:14:16.346Z,29.37
2019-02-04T19:16:46.257Z,32.50
2019-02-04T19:19:16.270Z,28.20
2019-02-04T19:21:46.188Z,30.20
2019-02-04T19:24:16.098Z,36.87
2019-02-04T19:26:46.012Z,39.87
2019-02-04T19:29:15.925Z,40.13
2019-02-04T19:31:46.431Z,42.73
2019-02-04T19:34:16.831Z,51.20
2019-02-04T19:36:46.748Z,51.93
2019-02-04T19:39:16.661Z,52.50
2019-02-04T19:41:46.775Z,55.13
2019-02-04T19:44:16.783Z,49.63
2019-02-04T19:46:46.897Z,41.07
2019-02-04T19:49:16.807Z,34.23
2019-02-04T19:51:46.829Z,39.30
2019-02-04T19:54:21.697Z,38.80
2019-02-04T19:56:48.413Z,34.70
2019-02-04T19:59:21.186Z,32.67
2019-02-04T20:01:50.207Z,33.70
2019-02-04T20:04:20.031Z,35.77
2019-02-04T20:06:49.935Z,38.50
2019-02-04T20:09:19.847Z,32.67
2019-02-04T20:11:49.860Z,30.63
2019-02-04T20:14:20.067Z,22.30
2019-02-04T20:16:49.983Z,23.17
2019-02-04T20:19:20.196Z,22.57
2019-02-04T20:21:50.112Z,19.13
2019-02-04T20:24:20.427Z,21.90
2019-02-04T20:26:50.631Z,19.23
2019-02-04T20:29:21.168Z,24.27
2019-02-04T20:31:51.489Z,24.37
2019-02-04T20:34:22.236Z,24.37
2019-02-04T20:36:52.475Z,26.23
2019-02-04T20:39:22.593Z,24.60
2019-02-04T20:41:53.746Z,30.20
2019-02-04T20:44:23.652Z,28.43
2019-02-04T20:46:54.265Z,32.93
2019-02-04T20:49:24.619Z,127.60
2019-02-04T20:51:56.854Z,80.10
2019-02-04T20:54:27.061Z,62.33
2019-02-04T20:56:57.051Z,46.13
2019-02-04T20:59:26.965Z,46.63
2019-02-04T21:01:57.280Z,62.73
2019-02-04T21:04:28.083Z,37.03
2019-02-04T21:06:58.082Z,33.63
2019-02-04T21:09:28.389Z,36.90
2019-02-04T21:11:58.702Z,39.13
2019-02-04T21:14:28.806Z,51.43
2019-02-04T21:17:00.097Z,35.43
2019-02-04T21:19:30.013Z,32.67
2019-02-04T21:22:00.020Z,36.90
2019-02-04T21:24:29.934Z,23.80
2019-02-04T21:26:59.944Z,24.87
2019-02-04T21:29:29.965Z,31.53
2019-02-04T21:32:00.070Z,21.87
2019-02-04T21:34:29.985Z,30.47
2019-02-04T21:37:00.289Z,23.53
2019-02-04T21:39:30.202Z,27.23
2019-02-04T21:42:00.115Z,26.43
2019-02-04T21:44:30.179Z,36.83
2019-02-04T21:47:00.143Z,29.73
2019-02-04T21:49:30.349Z,56.07
2019-02-04T21:52:00.851Z,52.67
2019-02-04T21:54:30.769Z,44.37
2019-02-04T21:57:01.365Z,35.30
2019-02-04T21:59:31.475Z,34.23
2019-02-04T22:02:01.587Z,70.70
2019-02-04T22:04:31.498Z,37.87
2019-02-04T22:07:02.918Z,39.57
2019-02-04T22:09:33.203Z,51.00
2019-02-04T22:12:03.203Z,50.13
2019-02-04T22:14:33.227Z,44.90
2019-02-04T22:17:03.328Z,56.23
2019-02-04T22:19:33.129Z,57.00
2019-02-04T22:22:03.057Z,54.33
2019-02-04T22:24:32.969Z,59.57
2019-02-04T22:27:02.883Z,63.43
2019-02-04T22:29:33.193Z,75.60
2019-02-04T22:32:03.202Z,82.93
2019-02-04T22:34:33.730Z,77.57
2019-02-04T22:37:03.720Z,76.67
2019-02-04T22:39:33.827Z,74.47
2019-02-04T22:42:04.037Z,80.27
2019-02-04T22:44:34.110Z,87.20
2019-02-04T22:47:04.058Z,81.23
2019-02-04T22:49:34.861Z,80.37
2019-02-04T22:52:05.314Z,68.70
2019-02-04T22:54:35.277Z,73.10
2019-02-04T22:57:05.484Z,76.50
2019-02-04T22:59:35.494Z,95.10
2019-02-04T23:02:06.939Z,98.57
2019-02-04T23:04:36.894Z,77.40
2019-02-04T23:07:07.201Z,89.50
2019-02-04T23:09:37.311Z,121.87
2019-02-04T23:12:07.617Z,87.03
2019-02-04T23:14:37.726Z,85.90
2019-02-04T23:17:08.332Z,84.83
2019-02-04T23:19:38.245Z,76.83
2019-02-04T23:22:08.453Z,92.50
2019-02-04T23:24:38.560Z,95.43
2019-02-04T23:27:08.775Z,97.50
2019-02-04T23:29:39.088Z,92.70
2019-02-04T23:32:09.189Z,75.97
2019-02-04T23:34:39.100Z,108.60
2019-02-04T23:37:09.017Z,103.80
2019-02-04T23:39:38.963Z,103.73
2019-02-04T23:42:09.825Z,101.80
2019-02-04T23:44:39.836Z,117.77
2019-02-04T23:47:09.749Z,116.77
2019-02-04T23:49:39.959Z,133.67
2019-02-04T23:52:10.067Z,132.37
2019-02-04T23:54:39.982Z,130.00
2019-02-04T23:57:10.195Z,138.00
2019-02-04T23:59:40.104Z,134.23
